Time;durP1;ratioP1;P1;durP2;ratioP2;P2;SDS_P1;SDS_P2;PMS_P1;PMS_P2;Temp;Humidity;BMP_temperature;BMP_pressure;BME280_temperature;BME280_humidity;BME280_pressure;Samples;Min_cycle;Max_cycle;Signal;HPM_P1;HPM_P2
2024/04/20 00:01:36;;;;;;;6.15;0.85;;;5.30;99.90;;;;;;5371406;26;19997;-80
2024/04/20 00:04:02;;;;;;;6.88;1.25;;;5.30;99.90;;;;;;5383700;26;20016;-81
2024/04/20 00:06:29;;;;;;;2.47;0.70;;;5.30;99.90;;;;;;5380907;26;20000;-81
2024/04/20 00:08:54;;;;;;;8.95;1.13;;;5.30;99.90;;;;;;5395101;26;20024;-80
2024/04/20 00:11:20;;;;;;;5.15;0.77;;;5.30;99.90;;;;;;5381528;26;20073;-81
2024/04/20 00:13:49;;;;;;;2.83;0.60;;;5.30;99.90;;;;;;5384006;26;20166;-81
2024/04/20 00:16:15;;;;;;;5.35;1.23;;;5.30;99.90;;;;;;5384147;26;20070;-81
2024/04/20 00:18:41;;;;;;;4.93;1.10;;;5.30;99.90;;;;;;5357700;26;20009;-80
2024/04/20 00:21:07;;;;;;;9.90;1.35;;;5.30;99.90;;;;;;5347598;26;20400;-80
2024/04/20 00:23:33;;;;;;;9.77;1.35;;;5.40;99.90;;;;;;5374801;26;20055;-79
2024/04/20 00:26:05;;;;;;;5.63;1.20;;;5.40;99.90;;;;;;5383876;26;20004;-80
2024/04/20 00:28:32;;;;;;;7.75;1.70;;;5.40;99.90;;;;;;5373845;26;20004;-79
2024/04/20 00:31:01;;;;;;;4.47;1.48;;;5.40;99.90;;;;;;5383105;26;20081;-80
2024/04/20 00:33:28;;;;;;;8.27;2.00;;;5.40;99.90;;;;;;5376952;26;20000;-80
2024/04/20 00:35:55;;;;;;;6.28;1.95;;;5.40;99.90;;;;;;5376252;26;20011;-81
2024/04/20 00:38:20;;;;;;;8.23;1.90;;;5.40;99.90;;;;;;5383619;26;20008;-81
2024/04/20 00:40:56;;;;;;;4.22;1.90;;;5.40;99.90;;;;;;5383077;26;20061;-81
2024/04/20 00:43:23;;;;;;;4.03;1.42;;;5.40;99.90;;;;;;5369702;26;20072;-80
2024/04/20 00:45:51;;;;;;;5.40;1.80;;;5.40;99.90;;;;;;5373474;26;20325;-81
2024/04/20 00:48:19;;;;;;;6.90;2.22;;;5.30;99.90;;;;;;5383151;26;20000;-81
2024/04/20 00:50:44;;;;;;;6.13;2.30;;;5.30;99.90;;;;;;5374589;26;20001;-80
2024/04/20 00:53:14;;;;;;;6.32;2.92;;;5.40;99.90;;;;;;5376178;26;20000;-80
2024/04/20 00:55:40;;;;;;;7.47;2.35;;;5.40;99.90;;;;;;5369805;26;20016;-79
2024/04/20 00:58:07;;;;;;;10.90;3.33;;;5.40;99.90;;;;;;5348886;26;20337;-81
2024/04/20 01:00:38;;;;;;;5.25;2.30;;;5.30;99.90;;;;;;5372824;26;20007;-80
2024/04/20 01:03:04;;;;;;;6.03;2.50;;;5.30;99.90;;;;;;5369946;26;20016;-81
2024/04/20 01:05:34;;;;;;;5.50;2.38;;;5.20;99.90;;;;;;5380333;26;20004;-80
2024/04/20 01:08:00;;;;;;;5.28;2.08;;;5.20;99.90;;;;;;5382787;26;20015;-81
2024/04/20 01:10:25;;;;;;;3.78;1.45;;;5.20;99.90;;;;;;5379885;26;20024;-80
2024/04/20 01:13:04;;;;;;;3.30;1.27;;;5.20;99.90;;;;;;5361629;26;20042;-79
2024/04/20 01:15:30;;;;;;;12.27;1.52;;;5.10;99.90;;;;;;5380419;26;20359;-79
2024/04/20 01:17:55;;;;;;;4.78;1.70;;;5.10;99.90;;;;;;5389593;26;20474;-79
2024/04/20 01:20:21;;;;;;;4.63;1.38;;;5.00;99.90;;;;;;5379943;26;20000;-79
2024/04/20 01:22:47;;;;;;;3.60;0.90;;;5.00;99.90;;;;;;5370837;26;20512;-81
2024/04/20 01:25:13;;;;;;;2.25;1.17;;;5.00;99.90;;;;;;5382182;26;19992;-81
2024/04/20 01:27:39;;;;;;;3.20;0.70;;;5.00;99.90;;;;;;5382613;26;20000;-80
2024/04/20 01:30:08;;;;;;;3.72;0.80;;;5.00;99.90;;;;;;5371595;26;20019;-79
2024/04/20 01:32:34;;;;;;;2.45;0.70;;;5.00;99.90;;;;;;5382410;26;20019;-80
2024/04/20 01:35:00;;;;;;;4.15;0.70;;;5.00;99.90;;;;;;5365919;26;20069;-79
2024/04/20 01:37:25;;;;;;;4.70;0.90;;;5.00;99.90;;;;;;5381897;26;20347;-80
2024/04/20 01:39:51;;;;;;;5.55;0.95;;;5.00;99.90;;;;;;5379407;26;20456;-80
2024/04/20 01:42:16;;;;;;;4.28;0.80;;;5.00;99.90;;;;;;5368227;26;20000;-80
2024/04/20 01:44:42;;;;;;;2.95;0.75;;;4.90;99.90;;;;;;5379628;26;20460;-80
2024/04/20 01:47:08;;;;;;;4.95;0.60;;;4.90;99.90;;;;;;5379461;26;20422;-79
2024/04/20 01:49:33;;;;;;;2.33;0.50;;;4.90;99.90;;;;;;5376410;26;20004;-80
2024/04/20 01:51:59;;;;;;;2.47;0.60;;;4.80;99.90;;;;;;5381461;26;19996;-80
2024/04/20 01:54:25;;;;;;;4.70;0.50;;;4.90;99.90;;;;;;5380722;26;20004;-80
2024/04/20 01:56:51;;;;;;;3.35;0.50;;;4.80;99.90;;;;;;5382051;26;20007;-80
2024/04/20 01:59:16;;;;;;;2.50;0.50;;;4.80;99.90;;;;;;5381936;26;20000;-80
2024/04/20 02:01:46;;;;;;;5.40;0.50;;;4.80;99.90;;;;;;5379615;26;20012;-81
2024/04/20 02:04:12;;;;;;;4.88;0.60;;;4.80;99.90;;;;;;5355221;26;20069;-81
2024/04/20 02:06:37;;;;;;;4.10;0.50;;;4.80;99.90;;;;;;5381918;26;20476;-80
2024/04/20 02:09:03;;;;;;;3.30;0.60;;;4.80;99.90;;;;;;5381780;26;20011;-80
2024/04/20 02:11:29;;;;;;;4.28;0.50;;;4.70;99.90;;;;;;5370179;26;20363;-80
2024/04/20 02:13:54;;;;;;;5.18;0.70;;;4.70;99.90;;;;;;5375802;26;20082;-81
2024/04/20 02:16:20;;;;;;;7.40;0.90;;;4.80;99.90;;;;;;5378658;26;20008;-80
2024/04/20 02:18:45;;;;;;;6.97;0.88;;;4.80;99.90;;;;;;5381234;26;20012;-81
2024/04/20 02:21:11;;;;;;;10.60;0.70;;;4.80;99.90;;;;;;5367605;26;20023;-80
2024/04/20 02:23:43;;;;;;;3.42;0.70;;;4.80;99.90;;;;;;5382860;26;19991;-80
2024/04/20 02:26:09;;;;;;;4.82;0.70;;;4.80;99.90;;;;;;5395912;26;20000;-80
2024/04/20 02:28:35;;;;;;;5.40;0.80;;;4.80;99.90;;;;;;5381121;26;20000;-83
2024/04/20 02:31:01;;;;;;;6.70;0.80;;;4.80;99.90;;;;;;5373817;26;20452;-80
2024/04/20 02:33:26;;;;;;;6.53;0.70;;;4.80;99.90;;;;;;5381699;26;20007;-81
2024/04/20 02:35:53;;;;;;;5.65;0.75;;;4.80;99.90;;;;;;5378132;26;20011;-81
2024/04/20 02:38:18;;;;;;;5.55;0.60;;;4.80;99.90;;;;;;5380429;26;19992;-81
2024/04/20 02:40:45;;;;;;;8.50;1.02;;;4.80;99.90;;;;;;5384196;26;19996;-82
2024/04/20 02:43:11;;;;;;;14.73;1.02;;;4.80;99.90;;;;;;5380701;26;20004;-81
2024/04/20 02:45:36;;;;;;;14.13;0.90;;;4.80;99.90;;;;;;5381669;26;19995;-81
2024/04/20 02:48:02;;;;;;;9.35;0.80;;;4.80;99.90;;;;;;5381225;26;19996;-80
2024/04/20 02:50:28;;;;;;;8.45;0.77;;;4.70;99.90;;;;;;5380309;26;20006;-81
2024/04/20 02:52:54;;;;;;;10.70;1.40;;;4.70;99.90;;;;;;5380625;26;20338;-81
2024/04/20 02:55:19;;;;;;;7.78;0.90;;;4.70;99.90;;;;;;5384927;26;20003;-81
2024/04/20 02:57:46;;;;;;;10.13;0.80;;;4.70;99.90;;;;;;5407842;26;20008;-82
2024/04/20 03:00:11;;;;;;;7.38;1.35;;;4.70;99.90;;;;;;5373194;26;20325;-82
2024/04/20 03:02:37;;;;;;;9.43;0.88;;;4.70;99.90;;;;;;5352301;26;20302;-81
2024/04/20 03:05:03;;;;;;;11.50;1.55;;;4.70;99.90;;;;;;5379883;26;20069;-81
2024/04/20 03:07:28;;;;;;;11.35;1.27;;;4.70;99.90;;;;;;5380660;26;19996;-81
2024/04/20 03:09:55;;;;;;;12.73;1.00;;;4.70;99.90;;;;;;5380369;26;20324;-81
2024/04/20 03:12:21;;;;;;;8.57;0.77;;;4.70;99.90;;;;;;5381438;26;20016;-81
2024/04/20 03:14:50;;;;;;;5.40;0.60;;;4.70;99.90;;;;;;5380957;26;20000;-81
2024/04/20 03:17:16;;;;;;;12.80;1.02;;;4.70;99.90;;;;;;5379310;26;20016;-81
2024/04/20 03:19:41;;;;;;;8.00;0.80;;;4.70;99.90;;;;;;5372785;26;20033;-82
2024/04/20 03:22:07;;;;;;;6.90;0.60;;;4.70;99.90;;;;;;5379194;26;20008;-81
2024/04/20 03:24:33;;;;;;;8.23;0.98;;;4.70;99.90;;;;;;5375931;26;20378;-81
2024/04/20 03:26:59;;;;;;;4.82;0.55;;;4.70;99.90;;;;;;5364716;26;19996;-81
2024/04/20 03:29:24;;;;;;;9.10;0.88;;;4.70;99.90;;;;;;5380483;26;20011;-81
2024/04/20 03:31:50;;;;;;;13.43;0.75;;;4.80;99.90;;;;;;5378360;26;20018;-81
2024/04/20 03:34:15;;;;;;;12.25;0.95;;;4.80;99.90;;;;;;5380228;26;20007;-80
2024/04/20 03:36:41;;;;;;;7.30;1.10;;;4.80;99.90;;;;;;5373700;26;20013;-81
2024/04/20 03:39:11;;;;;;;11.02;0.93;;;4.80;99.90;;;;;;5379713;26;20019;-81
2024/04/20 03:41:36;;;;;;;10.90;1.02;;;4.80;99.90;;;;;;5375550;26;20062;-80
2024/04/20 03:44:02;;;;;;;8.65;1.30;;;4.80;99.90;;;;;;5382045;26;20000;-80
2024/04/20 03:46:29;;;;;;;6.47;0.70;;;4.90;99.90;;;;;;5383506;26;19996;-80
2024/04/20 03:48:55;;;;;;;8.48;1.10;;;4.90;99.90;;;;;;5377485;26;20001;-81
2024/04/20 03:51:20;;;;;;;7.78;1.05;;;4.90;99.90;;;;;;5380771;26;20003;-80
2024/04/20 03:53:46;;;;;;;11.85;0.90;;;5.00;99.90;;;;;;5382400;26;20015;-80
2024/04/20 03:56:12;;;;;;;7.57;0.70;;;5.00;99.90;;;;;;5383863;26;20012;-80
2024/04/20 03:58:38;;;;;;;10.35;0.98;;;5.00;99.90;;;;;;5383514;26;20024;-80
2024/04/20 04:01:04;;;;;;;7.68;0.98;;;5.00;99.90;;;;;;5376834;26;20454;-81
2024/04/20 04:03:30;;;;;;;4.72;0.93;;;5.00;99.90;;;;;;5367453;26;20005;-80
2024/04/20 04:05:56;;;;;;;6.72;0.90;;;5.00;99.90;;;;;;5377474;26;20004;-80
2024/04/20 04:08:23;;;;;;;9.80;0.90;;;5.00;99.90;;;;;;5383294;26;20065;-81
2024/04/20 04:10:48;;;;;;;10.55;1.00;;;5.00;99.90;;;;;;5383134;26;20000;-81
2024/04/20 04:13:15;;;;;;;6.00;1.05;;;5.10;99.90;;;;;;5383666;26;20050;-80
2024/04/20 04:15:41;;;;;;;8.40;0.80;;;5.00;99.90;;;;;;5381618;26;20015;-80
2024/04/20 04:18:11;;;;;;;9.93;1.13;;;5.10;99.90;;;;;;5362284;26;20001;-80
2024/04/20 04:20:37;;;;;;;7.22;1.00;;;5.10;99.90;;;;;;5369149;26;20079;-80
2024/04/20 04:23:03;;;;;;;11.40;1.30;;;5.10;99.90;;;;;;5385284;26;19999;-81
2024/04/20 04:25:32;;;;;;;9.30;1.17;;;5.10;99.90;;;;;;5377968;26;20011;-80
2024/04/20 04:27:58;;;;;;;9.85;1.50;;;5.10;99.90;;;;;;5363384;26;20014;-83
2024/04/20 04:30:24;;;;;;;8.80;1.00;;;5.10;99.90;;;;;;5351518;26;20489;-81
2024/04/20 04:32:49;;;;;;;11.38;1.25;;;5.10;99.90;;;;;;5377773;26;20016;-82
2024/04/20 04:35:15;;;;;;;6.15;1.00;;;5.10;99.90;;;;;;5381522;26;20456;-81
2024/04/20 04:37:41;;;;;;;7.35;1.38;;;5.10;99.90;;;;;;5382632;26;20004;-80
2024/04/20 04:40:07;;;;;;;10.63;1.90;;;5.00;99.90;;;;;;5379244;26;20012;-81
2024/04/20 04:42:32;;;;;;;10.38;1.45;;;5.00;99.90;;;;;;5377762;26;19997;-79
2024/04/20 04:44:59;;;;;;;11.05;2.03;;;5.00;99.90;;;;;;5382559;26;20356;-81
2024/04/20 04:47:25;;;;;;;15.98;1.65;;;5.00;99.90;;;;;;5381160;26;20012;-80
2024/04/20 04:49:51;;;;;;;10.25;1.55;;;5.00;99.90;;;;;;5374076;26;20000;-81
2024/04/20 04:52:17;;;;;;;14.55;2.17;;;5.00;99.90;;;;;;5372838;26;20001;-81
2024/04/20 04:54:43;;;;;;;14.20;3.55;;;5.00;99.90;;;;;;5362501;26;20015;-80
2024/04/20 04:57:09;;;;;;;9.60;2.15;;;5.00;99.90;;;;;;5361347;26;20009;-79
2024/04/20 04:59:35;;;;;;;15.48;2.53;;;5.10;99.90;;;;;;5374031;26;20081;-80
2024/04/20 05:02:01;;;;;;;13.32;2.28;;;5.10;99.90;;;;;;5382485;26;20012;-79
2024/04/20 05:04:27;;;;;;;18.35;3.13;;;5.10;99.90;;;;;;5373131;26;20015;-81
2024/04/20 05:06:53;;;;;;;15.10;2.85;;;5.10;99.90;;;;;;5374422;26;19993;-80
2024/04/20 05:09:19;;;;;;;14.98;3.70;;;5.20;99.90;;;;;;5380181;26;20505;-80
2024/04/20 05:11:45;;;;;;;17.88;3.60;;;5.20;99.90;;;;;;5359852;26;20000;-80
2024/04/20 05:14:10;;;;;;;17.33;3.00;;;5.20;99.90;;;;;;5377371;26;20022;-80
2024/04/20 05:16:36;;;;;;;15.88;2.85;;;5.20;99.90;;;;;;5378304;26;20055;-80
2024/04/20 05:19:03;;;;;;;14.23;2.17;;;5.30;99.90;;;;;;5381723;26;19996;-80
2024/04/20 05:21:29;;;;;;;13.23;2.33;;;5.30;99.90;;;;;;5378242;26;20404;-80
2024/04/20 05:23:55;;;;;;;17.33;2.00;;;5.30;99.90;;;;;;5373763;26;20004;-81
2024/04/20 05:26:23;;;;;;;10.02;1.73;;;5.30;99.90;;;;;;5374965;26;20004;-81
2024/04/20 05:28:49;;;;;;;15.02;2.00;;;5.30;99.90;;;;;;5379406;26;20015;-80
2024/04/20 05:31:15;;;;;;;13.40;1.85;;;5.30;99.90;;;;;;5377110;26;20015;-80
2024/04/20 05:33:41;;;;;;;11.52;1.58;;;5.40;99.90;;;;;;5361288;26;20452;-80
2024/04/20 05:36:07;;;;;;;9.90;1.55;;;5.40;99.90;;;;;;5364044;26;20014;-80
2024/04/20 05:38:32;;;;;;;13.90;1.73;;;5.40;99.90;;;;;;5371351;26;20015;-80
2024/04/20 05:41:03;;;;;;;9.68;1.05;;;5.40;99.90;;;;;;5376420;26;19996;-79
2024/04/20 05:43:28;;;;;;;9.05;1.58;;;5.50;99.90;;;;;;5353609;26;20432;-80
2024/04/20 05:45:54;;;;;;;10.20;0.85;;;5.50;99.90;;;;;;5377723;26;20019;-81
2024/04/20 05:48:20;;;;;;;11.57;0.93;;;5.50;99.90;;;;;;5374391;26;20019;-80
2024/04/20 05:50:45;;;;;;;14.88;1.00;;;5.50;99.90;;;;;;5377522;26;20008;-80
2024/04/20 05:53:11;;;;;;;14.20;1.13;;;5.60;99.90;;;;;;5357370;26;20029;-80
2024/04/20 05:55:37;;;;;;;10.20;0.98;;;5.60;99.90;;;;;;5367672;26;20019;-79
2024/04/20 05:58:03;;;;;;;10.40;0.95;;;5.60;99.90;;;;;;5368338;26;20370;-80
2024/04/20 06:00:28;;;;;;;13.95;1.63;;;5.60;99.90;;;;;;5377109;26;19996;-79
2024/04/20 06:02:54;;;;;;;7.07;1.13;;;5.60;99.90;;;;;;5378350;26;20484;-80
2024/04/20 06:05:20;;;;;;;12.82;1.08;;;5.70;99.90;;;;;;5380439;26;20024;-79
2024/04/20 06:07:45;;;;;;;15.43;1.30;;;5.70;99.90;;;;;;5377495;26;20073;-79
2024/04/20 06:10:11;;;;;;;10.60;1.10;;;5.70;99.90;;;;;;5376683;26;20012;-79
2024/04/20 06:12:37;;;;;;;13.75;1.40;;;5.80;99.90;;;;;;5377599;26;20020;-80
2024/04/20 06:15:03;;;;;;;11.35;1.10;;;5.80;99.90;;;;;;5373031;26;20008;-79
2024/04/20 06:17:29;;;;;;;13.48;1.45;;;5.80;99.90;;;;;;5364801;26;20493;-81
2024/04/20 06:19:55;;;;;;;15.70;1.35;;;5.80;99.90;;;;;;5358678;26;20036;-81
2024/04/20 06:22:20;;;;;;;13.20;1.60;;;5.80;99.90;;;;;;5364555;26;20368;-81
2024/04/20 06:24:52;;;;;;;18.80;1.45;;;5.80;99.90;;;;;;5377808;26;19996;-82
2024/04/20 06:27:18;;;;;;;15.05;1.17;;;5.90;99.90;;;;;;5379434;26;19996;-82
2024/04/20 06:29:44;;;;;;;14.25;1.63;;;5.90;99.90;;;;;;5373302;26;20012;-82
2024/04/20 06:32:09;;;;;;;12.75;1.52;;;6.00;99.90;;;;;;5370790;26;20007;-82
2024/04/20 06:34:35;;;;;;;12.65;1.35;;;6.00;99.90;;;;;;5380657;26;20011;-83
2024/04/20 06:37:00;;;;;;;15.07;1.33;;;6.00;99.90;;;;;;5381730;26;20532;-82
2024/04/20 06:39:27;;;;;;;19.38;2.33;;;6.10;99.90;;;;;;5366569;26;20004;-79
2024/04/20 06:41:54;;;;;;;17.00;1.88;;;6.20;99.90;;;;;;5363805;26;20000;-78
2024/04/20 06:44:20;;;;;;;12.55;1.20;;;6.30;99.90;;;;;;5371087;26;19996;-79
2024/04/20 06:46:46;;;;;;;12.18;1.45;;;6.30;99.90;;;;;;5374936;26;20012;-79
2024/04/20 06:49:13;;;;;;;15.65;1.85;;;6.40;99.90;;;;;;5376185;26;20028;-79
2024/04/20 06:51:38;;;;;;;13.15;1.70;;;6.40;99.90;;;;;;5370583;26;20020;-80
2024/04/20 06:54:04;;;;;;;11.48;1.65;;;6.50;99.90;;;;;;5379235;26;20000;-80
2024/04/20 06:56:30;;;;;;;17.50;1.50;;;6.50;99.90;;;;;;5380659;26;20070;-79
2024/04/20 06:59:12;;;;;;;16.00;1.48;;;6.50;99.90;;;;;;5379717;26;20004;-81
2024/04/20 07:01:38;;;;;;;10.73;1.35;;;6.60;99.90;;;;;;5367251;26;20020;-79
2024/04/20 07:04:03;;;;;;;14.25;1.33;;;6.70;99.90;;;;;;5364107;26;20039;-80
2024/04/20 07:06:29;;;;;;;14.38;1.50;;;6.70;99.90;;;;;;5368790;26;20509;-81
2024/04/20 07:08:54;;;;;;;15.40;1.80;;;6.70;99.90;;;;;;5373982;26;20012;-80
2024/04/20 07:11:20;;;;;;;14.00;1.40;;;6.60;99.90;;;;;;5359942;26;20012;-79
2024/04/20 07:13:46;;;;;;;9.88;1.00;;;6.40;99.90;;;;;;5376232;26;20077;-80
2024/04/20 07:16:13;;;;;;;14.15;1.75;;;6.20;99.90;;;;;;5358462;26;20407;-80
2024/04/20 07:18:39;;;;;;;10.35;1.60;;;6.00;99.90;;;;;;5374452;26;20015;-82
2024/04/20 07:21:06;;;;;;;9.95;1.60;;;5.90;99.90;;;;;;5391711;26;19999;-81
2024/04/20 07:23:33;;;;;;;9.15;1.25;;;5.90;99.90;;;;;;5378108;26;20355;-79
2024/04/20 07:26:04;;;;;;;17.67;1.80;;;5.90;99.90;;;;;;5378411;26;20004;-80
2024/04/20 07:28:30;;;;;;;19.08;3.20;;;6.00;99.90;;;;;;5374781;26;20000;-79
2024/04/20 07:30:57;;;;;;;17.25;2.38;;;6.00;99.90;;;;;;5362050;26;20015;-79
2024/04/20 07:33:22;;;;;;;16.88;2.58;;;6.00;99.90;;;;;;5369848;26;20000;-79
2024/04/20 07:35:48;;;;;;;11.68;1.90;;;6.00;99.90;;;;;;5377178;26;20011;-79
2024/04/20 07:38:14;;;;;;;19.70;1.90;;;6.10;99.90;;;;;;5376083;26;20000;-79
2024/04/20 07:40:40;;;;;;;12.93;2.00;;;6.20;99.90;;;;;;5372630;26;20012;-81
2024/04/20 07:43:06;;;;;;;17.13;2.30;;;6.30;99.90;;;;;;5363626;26;20011;-79
2024/04/20 07:45:32;;;;;;;15.05;1.48;;;6.40;99.90;;;;;;5379881;26;20000;-79
2024/04/20 07:47:57;;;;;;;17.95;1.65;;;6.60;99.90;;;;;;5372070;26;19996;-81
2024/04/20 07:50:23;;;;;;;13.82;1.33;;;6.70;99.90;;;;;;5395026;26;20012;-81
2024/04/20 07:52:52;;;;;;;12.30;1.63;;;6.80;99.90;;;;;;5374836;26;20000;-80
2024/04/20 07:55:18;;;;;;;14.45;1.60;;;6.90;99.90;;;;;;5381744;26;20012;-80
2024/04/20 07:57:44;;;;;;;13.30;1.50;;;7.00;99.90;;;;;;5379083;26;20150;-80
2024/04/20 08:00:11;;;;;;;14.88;1.10;;;7.10;99.90;;;;;;5380464;26;20000;-80
2024/04/20 08:02:37;;;;;;;17.83;1.13;;;7.10;99.90;;;;;;5379475;26;20012;-80
2024/04/20 08:05:04;;;;;;;10.93;1.95;;;7.20;99.90;;;;;;5366023;26;20008;-79
2024/04/20 08:07:29;;;;;;;8.18;1.23;;;7.30;99.90;;;;;;5381498;26;20046;-80
2024/04/20 08:09:55;;;;;;;9.13;1.98;;;7.30;99.90;;;;;;5380006;26;20440;-80
2024/04/20 08:12:20;;;;;;;13.93;1.17;;;7.40;99.90;;;;;;5377898;26;20015;-80
2024/04/20 08:14:46;;;;;;;16.27;2.03;;;7.30;99.90;;;;;;5375879;26;20000;-78
2024/04/20 08:17:14;;;;;;;6.70;0.70;;;7.30;99.90;;;;;;5371298;26;20342;-77
2024/04/20 08:19:40;;;;;;;11.27;1.00;;;7.30;99.90;;;;;;5359971;26;20324;-79
2024/04/20 08:22:06;;;;;;;9.68;1.13;;;7.30;99.90;;;;;;5372401;26;20004;-78
2024/04/20 08:24:32;;;;;;;12.35;1.50;;;7.30;99.90;;;;;;5349829;26;20001;-79
2024/04/20 08:26:58;;;;;;;16.90;1.35;;;7.30;99.90;;;;;;5364438;26;20020;-78
2024/04/20 08:29:24;;;;;;;18.05;2.97;;;7.20;99.90;;;;;;5377370;26;20000;-78
2024/04/20 08:31:50;;;;;;;8.15;1.02;;;7.20;99.90;;;;;;5373637;26;20012;-80
2024/04/20 08:34:16;;;;;;;10.38;0.75;;;7.20;99.90;;;;;;5361184;26;20016;-79
2024/04/20 08:36:42;;;;;;;15.70;1.95;;;7.30;99.90;;;;;;5352770;26;20012;-81
2024/04/20 08:39:08;;;;;;;15.07;0.93;;;7.20;99.90;;;;;;5369995;26;20365;-80
2024/04/20 08:41:36;;;;;;;9.65;0.90;;;7.30;99.90;;;;;;5378883;26;20040;-80
2024/04/20 08:44:04;;;;;;;20.02;0.88;;;7.40;99.90;;;;;;5361999;26;20369;-80
2024/04/20 08:46:30;;;;;;;12.43;1.00;;;7.40;99.90;;;;;;5376135;26;20000;-80
2024/04/20 08:48:59;;;;;;;8.52;0.95;;;7.50;99.90;;;;;;5350088;26;20004;-80
2024/04/20 08:51:25;;;;;;;15.18;1.05;;;7.50;99.90;;;;;;5388120;26;20016;-80
2024/04/20 08:53:54;;;;;;;15.55;1.20;;;7.50;99.90;;;;;;5361221;26;20355;-80
2024/04/20 08:56:20;;;;;;;18.17;1.38;;;7.60;99.90;;;;;;5373208;26;20071;-78
2024/04/20 08:58:46;;;;;;;16.27;2.38;;;7.60;99.90;;;;;;5356453;26;20053;-79
2024/04/20 09:01:15;;;;;;;12.48;1.25;;;7.70;99.90;;;;;;5354100;26;19997;-79
2024/04/20 09:03:41;;;;;;;13.55;1.58;;;8.00;99.90;;;;;;5364044;26;20356;-78
2024/04/20 09:06:10;;;;;;;16.77;3.33;;;8.20;99.90;;;;;;5389009;26;20008;-78
2024/04/20 09:08:36;;;;;;;15.60;1.30;;;8.30;99.90;;;;;;5378827;26;20396;-78
2024/04/20 09:11:02;;;;;;;15.80;0.90;;;8.40;99.90;;;;;;5353892;26;20011;-78
2024/04/20 09:13:27;;;;;;;16.05;1.08;;;8.50;99.90;;;;;;5358424;26;19992;-78
2024/04/20 09:15:55;;;;;;;12.75;0.88;;;8.50;99.90;;;;;;5382198;26;19996;-78
2024/04/20 09:18:20;;;;;;;13.18;0.93;;;8.40;99.90;;;;;;5382255;26;20004;-79
2024/04/20 09:20:50;;;;;;;10.35;1.30;;;8.20;99.90;;;;;;5378643;26;20004;-80
2024/04/20 09:23:21;;;;;;;9.68;0.70;;;7.90;99.90;;;;;;5393667;26;19996;-79
2024/04/20 09:25:51;;;;;;;10.73;1.05;;;7.60;99.90;;;;;;5361492;26;20073;-79
2024/04/20 09:28:17;;;;;;;10.90;0.65;;;7.50;99.90;;;;;;5373122;26;19996;-81
2024/04/20 09:30:42;;;;;;;8.60;1.00;;;7.30;99.90;;;;;;5365945;26;20018;-81
2024/04/20 09:33:13;;;;;;;13.63;1.17;;;7.20;99.90;;;;;;5402608;26;19993;-81
2024/04/20 09:35:42;;;;;;;12.00;1.20;;;7.30;99.90;;;;;;5359715;26;20077;-79
2024/04/20 09:38:08;;;;;;;14.68;1.42;;;7.50;99.90;;;;;;5351751;26;20079;-79
2024/04/20 09:40:34;;;;;;;13.38;1.52;;;7.60;99.90;;;;;;5347773;26;20004;-78
2024/04/20 09:43:02;;;;;;;18.67;1.10;;;7.60;99.90;;;;;;5356804;26;20008;-79
2024/04/20 09:45:29;;;;;;;17.77;1.67;;;7.80;99.90;;;;;;5368266;26;20034;-79
2024/04/20 09:47:56;;;;;;;12.45;1.13;;;8.00;99.90;;;;;;5363784;26;20449;-79
2024/04/20 09:50:27;;;;;;;12.57;1.30;;;8.10;99.90;;;;;;5367517;26;20007;-78
2024/04/20 09:52:58;;;;;;;11.70;0.90;;;8.20;99.90;;;;;;5399855;26;20089;-79
2024/04/20 09:55:32;;;;;;;14.93;1.58;;;8.40;99.90;;;;;;5368138;26;20072;-80
2024/04/20 09:58:01;;;;;;;14.68;1.38;;;8.60;99.90;;;;;;5363387;26;20016;-79
2024/04/20 10:00:32;;;;;;;10.85;0.77;;;8.90;99.90;;;;;;5362807;26;20077;-78
2024/04/20 10:02:59;;;;;;;9.37;0.77;;;9.10;99.90;;;;;;5372579;26;20077;-78
2024/04/20 10:05:25;;;;;;;8.57;1.23;;;9.20;99.90;;;;;;5372146;26;20448;-79
2024/04/20 10:07:51;;;;;;;12.93;0.95;;;9.10;99.90;;;;;;5387570;26;20476;-78
2024/04/20 10:10:18;;;;;;;13.95;0.88;;;9.10;99.90;;;;;;5376546;26;20073;-78
2024/04/20 10:12:44;;;;;;;15.52;1.65;;;9.00;99.90;;;;;;5377381;26;20011;-78
2024/04/20 10:15:10;;;;;;;9.13;0.70;;;9.00;99.90;;;;;;5365533;26;20367;-78
2024/04/20 10:17:36;;;;;;;10.85;0.65;;;8.90;99.90;;;;;;5358588;26;20413;-78
2024/04/20 10:20:02;;;;;;;14.38;0.90;;;8.90;99.90;;;;;;5405811;26;20019;-78
2024/04/20 10:22:28;;;;;;;19.92;1.63;;;9.00;99.90;;;;;;5372971;26;20000;-79
2024/04/20 10:24:55;;;;;;;12.57;1.25;;;8.90;99.90;;;;;;5359470;26;20380;-78
2024/04/20 10:27:31;;;;;;;17.08;0.90;;;8.90;99.90;;;;;;5372640;26;20001;-78
2024/04/20 10:30:17;;;;;;;15.07;1.55;;;9.00;99.90;;;;;;5351023;26;20016;-80
2024/04/20 10:32:43;;;;;;;22.52;1.52;;;9.00;99.90;;;;;;5375432;26;20015;-79
2024/04/20 10:35:09;;;;;;;16.58;1.70;;;8.90;99.90;;;;;;5377591;26;20000;-78
2024/04/20 10:37:35;;;;;;;10.88;0.70;;;8.80;99.90;;;;;;5369137;26;20078;-78
2024/04/20 10:40:14;;;;;;;14.10;0.80;;;9.00;99.90;;;;;;5370787;26;20007;-78
2024/04/20 10:42:43;;;;;;;10.60;1.08;;;9.20;99.90;;;;;;5366920;26;19996;-81
2024/04/20 10:45:12;;;;;;;16.08;1.20;;;9.60;99.90;;;;;;5375491;26;20000;-79
2024/04/20 10:47:38;;;;;;;17.25;0.98;;;9.90;99.90;;;;;;5363124;26;20082;-81
2024/04/20 10:50:05;;;;;;;13.98;0.80;;;10.00;99.90;;;;;;5375321;26;20000;-81
2024/04/20 10:52:31;;;;;;;12.77;0.88;;;9.90;99.90;;;;;;5379449;26;20468;-80
2024/04/20 10:54:59;;;;;;;15.10;0.60;;;9.60;99.90;;;;;;5367304;26;20020;-82
2024/04/20 10:57:30;;;;;;;11.20;1.00;;;9.10;99.90;;;;;;5383321;26;20032;-83
2024/04/20 10:59:56;;;;;;;11.82;0.73;;;8.30;99.90;;;;;;5373179;26;20000;-82
2024/04/20 11:02:23;;;;;;;10.63;0.65;;;7.60;99.90;;;;;;5347446;26;20348;-82
2024/04/20 11:04:48;;;;;;;10.50;0.60;;;7.10;99.90;;;;;;5369003;26;19997;-83
2024/04/20 11:07:19;;;;;;;11.45;1.00;;;6.90;99.90;;;;;;5378863;26;20014;-82
2024/04/20 11:09:55;;;;;;;15.88;1.40;;;6.80;99.90;;;;;;5379344;26;20008;-81
2024/04/20 11:12:20;;;;;;;12.05;0.90;;;7.00;99.90;;;;;;5381549;26;20012;-81
2024/04/20 11:14:46;;;;;;;9.38;0.88;;;7.30;99.90;;;;;;5349250;26;20523;-81
2024/04/20 11:17:12;;;;;;;12.73;1.13;;;7.60;99.90;;;;;;5368387;26;19996;-81
2024/04/20 11:19:38;;;;;;;10.70;0.70;;;7.80;99.90;;;;;;5374758;26;20000;-80
2024/04/20 11:22:04;;;;;;;5.25;0.50;;;7.90;99.90;;;;;;5377602;26;20292;-81
2024/04/20 11:24:30;;;;;;;5.10;0.68;;;7.90;99.90;;;;;;5365070;26;20015;-81
2024/04/20 11:27:25;;;;;;;6.88;0.55;;;7.70;99.90;;;;;;5368137;26;20016;-81
2024/04/20 11:29:50;;;;;;;9.45;0.50;;;7.50;99.90;;;;;;5356253;26;20019;-81
2024/04/20 11:32:23;;;;;;;7.63;0.60;;;7.50;99.90;;;;;;5354298;26;20012;-81
2024/04/20 11:34:51;;;;;;;;;;;7.60;99.90;;;;;;5373040;26;20038;-81
2024/04/20 11:37:23;;;;;;;9.43;0.90;;;7.80;99.90;;;;;;5375965;26;19925;-81
2024/04/20 11:40:00;;;;;;;7.63;0.70;;;8.10;99.90;;;;;;5364894;26;20013;-82
2024/04/20 11:42:26;;;;;;;4.88;0.35;;;8.30;99.90;;;;;;5378733;26;20000;-81
2024/04/20 11:44:52;;;;;;;8.98;0.60;;;8.40;99.90;;;;;;5380991;26;20001;-82
2024/04/20 11:47:17;;;;;;;7.03;0.50;;;8.50;99.90;;;;;;5379780;26;20004;-82
2024/04/20 11:49:53;;;;;;;9.77;0.50;;;8.60;99.90;;;;;;5381441;26;20012;-82
2024/04/20 11:55:11;;;;;;;18.20;0.93;;;8.70;99.90;;;;;;5357191;26;20075;-81
2024/04/20 11:57:37;;;;;;;8.60;0.57;;;8.80;99.90;;;;;;5375268;26;20399;-80
2024/04/20 12:00:05;;;;;;;16.98;0.93;;;8.90;99.90;;;;;;5365427;26;20016;-80
2024/04/20 12:02:31;;;;;;;16.90;0.90;;;9.10;99.90;;;;;;5369260;26;19993;-81
2024/04/20 12:04:57;;;;;;;10.27;0.93;;;9.40;99.90;;;;;;5361603;26;20003;-81
2024/04/20 12:07:22;;;;;;;8.70;0.50;;;9.60;99.90;;;;;;5364022;26;19992;-81
2024/04/20 12:09:48;;;;;;;8.68;0.40;;;9.70;99.90;;;;;;5369880;26;20008;-82
2024/04/20 12:12:14;;;;;;;4.72;0.55;;;9.50;99.90;;;;;;5367423;26;20011;-82
2024/04/20 12:14:39;;;;;;;3.58;0.30;;;9.30;99.90;;;;;;5373022;26;19993;-82
2024/04/20 12:17:05;;;;;;;7.90;0.38;;;9.20;99.90;;;;;;5375660;26;20001;-82
2024/04/20 12:19:30;;;;;;;4.13;0.30;;;9.10;99.90;;;;;;5379803;26;20019;-82
2024/04/20 12:21:58;;;;;;;5.40;0.40;;;9.00;99.90;;;;;;5365149;26;20011;-82
2024/04/20 12:24:23;;;;;;;5.13;0.20;;;8.90;99.90;;;;;;5374451;26;19999;-82
2024/04/20 12:26:49;;;;;;;6.15;0.40;;;8.80;99.90;;;;;;5381077;26;20075;-81
2024/04/20 12:29:15;;;;;;;9.13;0.50;;;8.70;99.90;;;;;;5381180;26;20463;-82
2024/04/20 12:31:40;;;;;;;5.55;0.40;;;8.80;99.90;;;;;;5382898;26;20374;-82
2024/04/20 12:34:06;;;;;;;8.93;1.05;;;9.00;99.90;;;;;;5375622;26;20605;-81
2024/04/20 12:36:32;;;;;;;7.70;0.50;;;9.20;99.90;;;;;;5366647;26;20008;-79
2024/04/20 12:38:57;;;;;;;10.95;1.25;;;9.40;99.90;;;;;;5367968;26;20069;-80
2024/04/20 12:41:23;;;;;;;12.90;0.60;;;9.60;99.90;;;;;;5377934;26;20014;-80
2024/04/20 12:43:50;;;;;;;18.63;1.52;;;9.90;99.90;;;;;;5379069;26;20467;-79
2024/04/20 12:46:16;;;;;;;10.57;1.17;;;10.20;99.90;;;;;;5378539;26;20000;-80
2024/04/20 12:48:42;;;;;;;10.20;0.80;;;10.50;99.90;;;;;;5380250;26;19996;-81
2024/04/20 12:51:07;;;;;;;11.27;0.98;;;10.60;99.90;;;;;;5365493;26;20005;-80